createdAt,value
2017-06-28T00:00:41.176Z,19.40
2017-06-28T00:03:09.406Z,19.30
2017-06-28T00:05:37.600Z,19.30
2017-06-28T00:08:05.802Z,19.20
2017-06-28T00:10:34.777Z,19.10
2017-06-28T00:13:02.972Z,19.10
2017-06-28T00:15:31.995Z,19.00
2017-06-28T00:18:00.342Z,19.00
2017-06-28T00:20:29.340Z,18.90
2017-06-28T00:22:57.544Z,18.90
2017-06-28T00:25:25.757Z,18.90
2017-06-28T00:27:53.973Z,18.90
2017-06-28T00:30:22.347Z,18.90
2017-06-28T00:32:51.346Z,18.80
2017-06-28T00:35:19.532Z,18.80
2017-06-28T00:37:47.747Z,18.70
2017-06-28T00:40:16.012Z,18.70
2017-06-28T00:42:44.209Z,18.70
2017-06-28T00:45:12.410Z,18.70
2017-06-28T00:47:41.378Z,18.80
2017-06-28T00:50:10.550Z,18.70
2017-06-28T00:52:38.777Z,18.70
2017-06-28T00:55:06.987Z,18.70
2017-06-28T00:57:35.271Z,18.70
2017-06-28T01:00:03.521Z,18.80
2017-06-28T01:02:32.623Z,18.80
2017-06-28T01:05:01.595Z,18.80
2017-06-28T01:07:29.834Z,18.70
2017-06-28T01:09:58.059Z,18.80
2017-06-28T01:12:26.361Z,18.70
2017-06-28T01:14:54.561Z,18.70
2017-06-28T01:17:22.873Z,18.70
2017-06-28T01:19:51.390Z,18.60
2017-06-28T01:22:19.671Z,18.60
2017-06-28T01:24:47.877Z,18.50
2017-06-28T01:27:16.225Z,18.50
2017-06-28T01:29:44.442Z,18.50
2017-06-28T01:32:12.655Z,18.50
2017-06-28T01:34:40.871Z,18.40
2017-06-28T01:37:09.208Z,18.40
2017-06-28T01:39:37.391Z,18.40
2017-06-28T01:42:06.543Z,18.30
2017-06-28T01:44:34.742Z,18.30
2017-06-28T01:47:04.165Z,18.30
2017-06-28T01:49:32.335Z,18.30
2017-06-28T01:52:00.578Z,18.30
2017-06-28T01:54:28.770Z,18.30
2017-06-28T01:56:56.978Z,18.30
2017-06-28T01:59:25.264Z,18.30
2017-06-28T02:01:53.471Z,18.40
2017-06-28T02:04:22.729Z,18.30
2017-06-28T02:06:50.939Z,18.30
2017-06-28T02:09:19.162Z,18.40
2017-06-28T02:11:47.384Z,18.40
2017-06-28T02:14:15.588Z,18.40
2017-06-28T02:16:43.903Z,18.40
2017-06-28T02:19:12.096Z,18.50
2017-06-28T02:21:40.376Z,18.50
2017-06-28T02:24:08.857Z,18.50
2017-06-28T02:26:37.545Z,18.60
2017-06-28T02:29:06.514Z,18.70
2017-06-28T02:31:34.726Z,18.70
2017-06-28T02:34:03.155Z,18.70
2017-06-28T02:36:31.352Z,18.80
2017-06-28T02:38:59.567Z,18.80
2017-06-28T02:41:27.862Z,18.90
2017-06-28T02:43:56.078Z,19.00
2017-06-28T02:46:25.020Z,19.10
2017-06-28T02:48:53.244Z,19.10
2017-06-28T02:51:21.457Z,19.10
2017-06-28T02:53:49.833Z,19.10
2017-06-28T02:56:18.175Z,19.10
2017-06-28T02:58:46.423Z,19.00
2017-06-28T03:01:14.646Z,18.90
2017-06-28T03:03:43.606Z,18.90
2017-06-28T03:06:11.853Z,18.90
2017-06-28T03:08:40.311Z,18.90
2017-06-28T03:11:09.299Z,18.90
2017-06-28T03:13:37.556Z,18.90
2017-06-28T03:16:05.765Z,18.80
2017-06-28T03:18:34.038Z,18.70
2017-06-28T03:21:02.350Z,18.40
2017-06-28T03:23:30.566Z,18.20
2017-06-28T03:25:58.778Z,18.20
2017-06-28T03:28:27.153Z,18.30
2017-06-28T03:30:56.192Z,18.40
2017-06-28T03:33:24.441Z,18.40
2017-06-28T03:35:52.769Z,18.50
2017-06-28T03:38:21.079Z,18.60
2017-06-28T03:40:49.294Z,18.50
2017-06-28T03:43:17.514Z,18.40
2017-06-28T03:45:45.726Z,18.50
2017-06-28T03:48:14.009Z,18.40
2017-06-28T03:50:42.303Z,18.40
2017-06-28T03:53:10.943Z,18.40
2017-06-28T03:55:39.922Z,18.40
2017-06-28T03:58:08.336Z,18.40
2017-06-28T04:00:36.551Z,18.40
2017-06-28T04:03:04.770Z,18.40
2017-06-28T04:05:32.974Z,18.50
2017-06-28T04:08:01.279Z,18.50
2017-06-28T04:10:29.521Z,18.60
2017-06-28T04:12:57.730Z,18.60
2017-06-28T04:15:25.959Z,18.60
2017-06-28T04:17:54.169Z,18.60
2017-06-28T04:20:22.376Z,18.60
2017-06-28T04:22:50.598Z,18.70
2017-06-28T04:25:18.810Z,18.80
2017-06-28T04:27:47.057Z,18.80
2017-06-28T04:30:15.314Z,18.90
2017-06-28T04:32:44.296Z,18.70
2017-06-28T04:35:12.689Z,18.60
2017-06-28T04:37:40.969Z,18.70
2017-06-28T04:40:09.194Z,18.80
2017-06-28T04:42:37.413Z,18.80
2017-06-28T04:45:05.639Z,18.90
2017-06-28T04:47:33.920Z,19.00
2017-06-28T04:50:02.125Z,19.00
2017-06-28T04:52:30.536Z,19.10
2017-06-28T04:54:59.502Z,19.00
2017-06-28T04:57:27.744Z,18.90
2017-06-28T04:59:55.953Z,19.00
2017-06-28T05:02:24.187Z,18.80
2017-06-28T05:04:52.742Z,18.70
2017-06-28T05:07:20.954Z,18.90
2017-06-28T05:09:49.167Z,19.10
2017-06-28T05:12:17.367Z,19.20
2017-06-28T05:14:46.464Z,19.50
2017-06-28T05:17:14.724Z,19.50
2017-06-28T05:19:43.698Z,19.90
2017-06-28T05:22:11.910Z,19.90
2017-06-28T05:24:40.187Z,20.00
2017-06-28T05:27:09.291Z,20.00
2017-06-28T05:29:37.571Z,20.00
2017-06-28T05:32:05.782Z,20.00
2017-06-28T05:34:34.018Z,19.80
2017-06-28T05:37:02.217Z,19.80
2017-06-28T05:39:30.431Z,19.80
2017-06-28T05:41:58.658Z,19.80
2017-06-28T05:44:26.881Z,19.90
2017-06-28T05:46:55.104Z,20.10
2017-06-28T05:49:23.314Z,20.30
2017-06-28T05:51:51.522Z,20.30
2017-06-28T05:54:19.755Z,20.40
2017-06-28T05:56:47.958Z,20.50
2017-06-28T05:59:16.207Z,20.40
2017-06-28T06:01:44.586Z,20.30
2017-06-28T06:04:12.795Z,20.30
2017-06-28T06:06:41.022Z,20.20
2017-06-28T06:09:09.224Z,20.10
2017-06-28T06:11:37.427Z,20.20
2017-06-28T06:14:05.648Z,20.20
2017-06-28T06:16:33.855Z,20.20
2017-06-28T06:19:02.365Z,20.30
2017-06-28T06:21:30.569Z,20.30
2017-06-28T06:23:58.788Z,20.40
2017-06-28T06:26:27.005Z,20.40
2017-06-28T06:28:55.236Z,20.30
2017-06-28T06:31:23.564Z,20.30
2017-06-28T06:33:51.768Z,20.40
2017-06-28T06:36:20.103Z,20.40
2017-06-28T06:38:48.373Z,20.40
2017-06-28T06:41:17.479Z,20.30
2017-06-28T06:43:46.444Z,20.30
2017-06-28T06:46:14.658Z,20.30
2017-06-28T06:48:42.909Z,20.30
2017-06-28T06:51:11.067Z,20.20
2017-06-28T06:53:39.266Z,20.10
2017-06-28T06:56:08.237Z,20.10
2017-06-28T06:58:36.431Z,20.10
2017-06-28T07:01:04.667Z,20.00
2017-06-28T07:03:32.883Z,19.90
2017-06-28T07:06:01.102Z,19.90
2017-06-28T07:08:29.382Z,20.00
2017-06-28T07:10:57.586Z,20.00
2017-06-28T07:13:25.790Z,20.00
2017-06-28T07:15:53.998Z,20.00
2017-06-28T07:18:22.207Z,20.00
2017-06-28T07:20:50.547Z,20.00
2017-06-28T07:23:18.759Z,19.90
2017-06-28T07:25:46.968Z,19.90
2017-06-28T07:28:15.378Z,20.00
2017-06-28T07:30:43.645Z,20.10
2017-06-28T07:33:12.616Z,20.10
2017-06-28T07:35:40.825Z,20.10
2017-06-28T07:38:09.028Z,20.10
2017-06-28T07:40:37.223Z,20.10
2017-06-28T07:43:05.474Z,20.00
2017-06-28T07:45:33.680Z,19.90
2017-06-28T07:48:02.210Z,19.80
2017-06-28T07:50:30.509Z,19.80
2017-06-28T07:52:58.722Z,19.70
2017-06-28T07:55:27.138Z,19.60
2017-06-28T07:57:55.371Z,19.60
2017-06-28T08:00:23.791Z,19.70
2017-06-28T08:02:52.764Z,19.50
2017-06-28T08:05:20.980Z,19.40
2017-06-28T08:07:49.258Z,19.50
2017-06-28T08:10:17.523Z,19.40
2017-06-28T08:12:46.506Z,19.50
2017-06-28T08:15:14.717Z,19.50
2017-06-28T08:17:42.926Z,19.60
2017-06-28T08:20:11.123Z,19.80
2017-06-28T08:22:39.333Z,19.80
2017-06-28T08:25:07.684Z,19.90
2017-06-28T08:27:35.887Z,20.00
2017-06-28T08:30:04.114Z,20.20
2017-06-28T08:32:32.316Z,20.30
2017-06-28T08:35:00.519Z,20.60
2017-06-28T08:37:28.976Z,20.60
2017-06-28T08:39:57.947Z,21.10
2017-06-28T08:42:26.156Z,21.00
2017-06-28T08:44:55.164Z,21.40
2017-06-28T08:47:23.375Z,21.40
2017-06-28T08:49:51.582Z,21.50
2017-06-28T08:52:19.785Z,21.40
2017-06-28T08:54:47.999Z,21.30
2017-06-28T08:57:16.197Z,21.40
2017-06-28T08:59:44.413Z,21.50
2017-06-28T09:02:13.023Z,21.40
2017-06-28T09:04:41.249Z,21.40
2017-06-28T09:07:09.530Z,21.30
2017-06-28T09:09:38.503Z,21.50
2017-06-28T09:12:06.729Z,21.50
2017-06-28T09:14:34.932Z,22.10
2017-06-28T09:17:03.133Z,22.60
2017-06-28T09:19:31.374Z,22.80
2017-06-28T09:21:59.590Z,22.80
2017-06-28T09:24:27.898Z,22.80
2017-06-28T09:26:56.205Z,22.60
2017-06-28T09:29:24.450Z,22.50
2017-06-28T09:31:53.411Z,22.40
2017-06-28T09:34:21.628Z,22.40
2017-06-28T09:36:49.922Z,22.70
2017-06-28T09:39:18.120Z,22.70
2017-06-28T09:41:46.493Z,22.70
2017-06-28T09:44:14.722Z,22.60
2017-06-28T09:46:42.947Z,22.50
2017-06-28T09:49:11.146Z,22.60
2017-06-28T09:51:39.361Z,22.80
2017-06-28T09:54:08.333Z,23.20
2017-06-28T09:56:36.546Z,23.20
2017-06-28T09:59:04.753Z,23.40
2017-06-28T10:01:32.985Z,23.50
2017-06-28T10:04:01.362Z,23.80
2017-06-28T10:06:29.575Z,24.30
2017-06-28T10:08:57.778Z,24.50
2017-06-28T10:11:26.194Z,24.40
2017-06-28T10:13:55.170Z,24.00
2017-06-28T10:16:23.389Z,24.00
2017-06-28T10:18:51.594Z,23.80
2017-06-28T10:21:19.803Z,24.00
2017-06-28T10:23:48.021Z,24.10
2017-06-28T10:26:16.282Z,24.30
2017-06-28T10:28:44.556Z,25.00
2017-06-28T10:31:12.815Z,25.30
2017-06-28T10:33:41.789Z,25.50
2017-06-28T10:36:10.000Z,25.50
2017-06-28T10:38:38.300Z,26.80
2017-06-28T10:41:06.577Z,27.40
2017-06-28T10:43:34.779Z,27.50
2017-06-28T10:46:03.102Z,27.30
2017-06-28T10:48:31.385Z,27.00
2017-06-28T10:51:00.345Z,26.00
2017-06-28T10:53:28.564Z,26.00
2017-06-28T10:55:56.817Z,25.50
2017-06-28T10:58:25.783Z,24.40
2017-06-28T11:00:54.213Z,24.30
2017-06-28T11:03:22.478Z,23.80
2017-06-28T11:05:51.454Z,23.20
2017-06-28T11:08:19.857Z,23.20
2017-06-28T11:10:48.144Z,23.10
2017-06-28T11:13:16.497Z,22.90
2017-06-28T11:15:44.678Z,22.70
2017-06-28T11:18:13.647Z,22.80
2017-06-28T11:20:41.867Z,22.80
2017-06-28T11:23:10.966Z,23.70
2017-06-28T11:25:39.234Z,23.70
2017-06-28T11:28:07.451Z,24.40
2017-06-28T11:30:35.796Z,25.00
2017-06-28T11:33:04.896Z,25.60
2017-06-28T11:35:33.837Z,25.70
2017-06-28T11:38:02.049Z,25.60
2017-06-28T11:40:31.158Z,26.20
2017-06-28T11:42:59.362Z,26.20
2017-06-28T11:45:27.913Z,25.40
2017-06-28T11:47:56.179Z,24.60
2017-06-28T11:50:25.287Z,24.10
2017-06-28T11:52:54.269Z,24.50
2017-06-28T11:55:22.480Z,24.50
2017-06-28T11:57:50.737Z,24.80
2017-06-28T12:00:18.942Z,25.10
2017-06-28T12:02:47.155Z,25.40
2017-06-28T12:05:15.350Z,25.50
2017-06-28T12:07:44.319Z,25.30
2017-06-28T12:10:12.532Z,25.20
2017-06-28T12:12:40.726Z,25.10
2017-06-28T12:15:08.937Z,25.00
2017-06-28T12:17:37.157Z,25.00
2017-06-28T12:20:06.129Z,25.10
2017-06-28T12:22:34.336Z,25.10
2017-06-28T12:25:02.558Z,25.10
2017-06-28T12:27:30.898Z,25.60
2017-06-28T12:29:59.178Z,25.40
2017-06-28T12:32:27.436Z,25.30
2017-06-28T12:34:56.487Z,25.50
2017-06-28T12:37:24.698Z,25.50
2017-06-28T12:39:52.893Z,25.00
2017-06-28T12:42:21.099Z,24.90
2017-06-28T12:44:49.316Z,24.80
2017-06-28T12:47:17.546Z,24.80
2017-06-28T12:49:45.777Z,25.00
2017-06-28T12:52:14.142Z,25.00
2017-06-28T12:54:42.336Z,24.90
2017-06-28T12:57:10.675Z,25.10
2017-06-28T12:59:38.975Z,25.20
2017-06-28T13:02:07.384Z,25.20
2017-06-28T13:04:35.628Z,25.10
2017-06-28T13:07:04.972Z,24.70
2017-06-28T13:09:35.112Z,24.70
2017-06-28T13:12:03.316Z,24.30
2017-06-28T13:14:31.541Z,24.40
2017-06-28T13:16:59.736Z,24.10
2017-06-28T13:19:28.009Z,23.90
2017-06-28T13:21:56.365Z,23.90
2017-06-28T13:24:25.014Z,24.00
2017-06-28T13:26:54.114Z,24.10
2017-06-28T13:29:22.470Z,24.00
2017-06-28T13:31:51.727Z,24.60
2017-06-28T13:34:19.957Z,24.60
2017-06-28T13:36:49.069Z,24.50
2017-06-28T13:39:17.707Z,24.40
2017-06-28T13:41:46.038Z,24.60
2017-06-28T13:44:14.334Z,24.80
2017-06-28T13:46:42.855Z,24.90
2017-06-28T13:49:11.794Z,25.10
2017-06-28T13:51:40.328Z,25.10
2017-06-28T13:54:08.521Z,25.40
2017-06-28T13:56:36.775Z,25.60
2017-06-28T13:59:05.235Z,25.50
2017-06-28T14:01:33.503Z,25.20
2017-06-28T14:04:01.893Z,25.10
2017-06-28T14:06:30.994Z,25.10
2017-06-28T14:08:59.208Z,25.10
2017-06-28T14:11:27.413Z,25.10
2017-06-28T14:13:55.652Z,24.90
2017-06-28T14:16:23.867Z,24.90
2017-06-28T14:18:52.075Z,24.90
2017-06-28T14:21:20.328Z,24.90
2017-06-28T14:23:48.505Z,24.80
2017-06-28T14:26:16.758Z,24.90
2017-06-28T14:28:44.978Z,25.10
2017-06-28T14:31:13.216Z,25.10
2017-06-28T14:33:41.410Z,24.90
2017-06-28T14:36:09.587Z,24.80
2017-06-28T14:38:37.796Z,25.00
2017-06-28T14:41:06.087Z,24.90
2017-06-28T14:43:34.290Z,24.80
2017-06-28T14:46:02.509Z,24.40
2017-06-28T14:48:30.724Z,24.50
2017-06-28T14:50:58.982Z,24.60
2017-06-28T14:53:27.177Z,24.70
2017-06-28T14:55:55.396Z,24.90
2017-06-28T14:58:23.640Z,25.00
2017-06-28T15:00:51.833Z,25.30
2017-06-28T15:03:20.057Z,25.60
2017-06-28T15:05:49.040Z,25.80
2017-06-28T15:08:17.262Z,25.80
2017-06-28T15:10:45.481Z,25.60
2017-06-28T15:13:13.695Z,25.50
2017-06-28T15:15:41.888Z,25.50
2017-06-28T15:18:10.094Z,25.60
2017-06-28T15:20:38.442Z,25.90
2017-06-28T15:23:06.641Z,25.80
2017-06-28T15:25:34.855Z,25.60
2017-06-28T15:28:03.110Z,25.40
2017-06-28T15:30:31.345Z,25.30
2017-06-28T15:32:59.554Z,25.30
2017-06-28T15:35:27.776Z,25.30
2017-06-28T15:37:55.978Z,25.30
2017-06-28T15:40:24.174Z,25.20
2017-06-28T15:42:52.676Z,25.00
2017-06-28T15:45:20.873Z,24.90
2017-06-28T15:47:49.088Z,24.90
2017-06-28T15:50:17.281Z,25.20
2017-06-28T15:52:45.499Z,25.30
2017-06-28T15:55:13.737Z,25.60
2017-06-28T15:57:41.943Z,25.80
2017-06-28T16:00:10.920Z,25.50
2017-06-28T16:02:39.152Z,25.40
2017-06-28T16:05:08.344Z,25.70
2017-06-28T16:07:36.637Z,25.70
2017-06-28T16:10:04.870Z,25.50
2017-06-28T16:12:34.021Z,25.30
2017-06-28T16:15:02.257Z,25.30
2017-06-28T16:17:30.518Z,25.20
2017-06-28T16:19:59.714Z,24.90
2017-06-28T16:22:28.680Z,25.00
2017-06-28T16:24:57.416Z,25.00
2017-06-28T16:27:25.589Z,25.00
2017-06-28T16:29:53.811Z,24.80
2017-06-28T16:32:22.035Z,24.60
2017-06-28T16:34:50.240Z,24.40
2017-06-28T16:37:18.714Z,24.30
2017-06-28T16:39:47.059Z,24.50
2017-06-28T16:42:15.301Z,24.60
2017-06-28T16:44:43.510Z,24.70
2017-06-28T16:47:11.821Z,24.70
2017-06-28T16:49:40.041Z,24.90
2017-06-28T16:52:08.408Z,25.10
2017-06-28T16:54:36.631Z,25.10
2017-06-28T16:57:04.931Z,25.20
2017-06-28T16:59:33.210Z,25.20
2017-06-28T17:02:01.422Z,25.20
2017-06-28T17:04:29.647Z,25.10
2017-06-28T17:06:57.912Z,25.00
2017-06-28T17:09:26.554Z,25.00
2017-06-28T17:11:54.746Z,25.00
2017-06-28T17:14:22.965Z,25.10
2017-06-28T17:16:51.343Z,25.50
2017-06-28T17:19:19.551Z,25.70
2017-06-28T17:21:47.769Z,25.70
2017-06-28T17:24:16.010Z,25.80
2017-06-28T17:26:44.253Z,25.80
2017-06-28T17:29:12.539Z,25.80
2017-06-28T17:31:40.806Z,25.80
2017-06-28T17:34:09.021Z,25.70
2017-06-28T17:36:37.247Z,25.60
2017-06-28T17:39:05.457Z,25.40
2017-06-28T17:41:33.683Z,25.20
2017-06-28T17:44:01.870Z,25.00
2017-06-28T17:46:30.086Z,24.70
2017-06-28T17:48:58.369Z,24.50
2017-06-28T17:51:26.619Z,24.30
2017-06-28T17:53:55.596Z,24.30
2017-06-28T17:56:23.804Z,24.20
2017-06-28T17:58:52.063Z,24.30
2017-06-28T18:01:20.264Z,24.30
2017-06-28T18:03:48.461Z,24.40
2017-06-28T18:06:16.698Z,24.40
2017-06-28T18:08:44.901Z,24.40
2017-06-28T18:11:13.096Z,24.40
2017-06-28T18:13:41.414Z,24.30
2017-06-28T18:16:10.389Z,24.10
2017-06-28T18:18:38.608Z,24.10
2017-06-28T18:21:06.811Z,24.00
2017-06-28T18:23:35.141Z,24.00
2017-06-28T18:26:04.130Z,23.90
2017-06-28T18:28:32.335Z,23.90
2017-06-28T18:31:00.586Z,23.90
2017-06-28T18:33:29.707Z,23.80
2017-06-28T18:35:58.024Z,23.80
2017-06-28T18:38:26.244Z,23.80
2017-06-28T18:40:54.539Z,23.60
2017-06-28T18:43:22.813Z,23.50
2017-06-28T18:45:51.065Z,23.40
2017-06-28T18:48:19.330Z,23.30
2017-06-28T18:50:47.537Z,23.00
2017-06-28T18:53:15.745Z,22.60
2017-06-28T18:55:43.962Z,22.50
2017-06-28T18:58:12.186Z,22.30
2017-06-28T19:00:40.415Z,21.90
2017-06-28T19:03:08.631Z,21.60
2017-06-28T19:05:36.848Z,21.20
2017-06-28T19:08:05.157Z,20.90
2017-06-28T19:10:33.431Z,20.70
2017-06-28T19:13:02.939Z,20.40
2017-06-28T19:15:31.904Z,20.40
2017-06-28T19:18:00.129Z,20.40
2017-06-28T19:20:28.332Z,20.30
2017-06-28T19:22:56.688Z,20.20
2017-06-28T19:25:24.895Z,20.00
2017-06-28T19:27:53.103Z,20.00
2017-06-28T19:30:21.344Z,20.00
2017-06-28T19:32:49.543Z,20.00
2017-06-28T19:35:17.875Z,19.90
2017-06-28T19:37:46.102Z,19.90
2017-06-28T19:40:15.261Z,19.80
2017-06-28T19:42:43.465Z,19.70
2017-06-28T19:45:11.672Z,19.50
2017-06-28T19:47:40.074Z,19.50
2017-06-28T19:50:08.276Z,19.40
2017-06-28T19:52:36.505Z,19.30
2017-06-28T19:55:04.721Z,19.20
2017-06-28T19:57:32.939Z,19.30
2017-06-28T20:00:01.162Z,19.20
2017-06-28T20:02:29.363Z,19.10
2017-06-28T20:04:57.621Z,19.00
2017-06-28T20:07:25.863Z,18.90
2017-06-28T20:09:54.825Z,18.90
2017-06-28T20:12:23.064Z,18.90
2017-06-28T20:14:51.266Z,18.80
2017-06-28T20:17:19.481Z,18.80
2017-06-28T20:19:47.684Z,18.80
2017-06-28T20:22:15.874Z,18.80
2017-06-28T20:24:44.105Z,18.80
2017-06-28T20:27:12.294Z,18.70
2017-06-28T20:29:41.274Z,18.70
2017-06-28T20:32:09.478Z,18.70
2017-06-28T20:34:37.831Z,18.70
2017-06-28T20:37:06.016Z,18.70
2017-06-28T20:39:34.308Z,18.60
2017-06-28T20:42:03.403Z,18.60
2017-06-28T20:44:31.893Z,18.60
2017-06-28T20:47:00.115Z,18.50
2017-06-28T20:49:28.341Z,18.40
2017-06-28T20:51:56.563Z,18.40
2017-06-28T20:54:24.785Z,18.30
2017-06-28T20:56:53.043Z,18.20
2017-06-28T20:59:21.345Z,18.20
2017-06-28T21:01:49.574Z,18.10
2017-06-28T21:04:17.773Z,18.00
2017-06-28T21:06:45.991Z,18.00
2017-06-28T21:09:14.205Z,17.90
2017-06-28T21:11:42.422Z,17.80
2017-06-28T21:14:10.668Z,17.70
2017-06-28T21:16:38.848Z,17.70
2017-06-28T21:19:07.040Z,17.70
2017-06-28T21:21:35.282Z,17.60
2017-06-28T21:24:03.706Z,17.60
2017-06-28T21:26:32.892Z,17.60
2017-06-28T21:29:01.090Z,17.60
2017-06-28T21:31:29.358Z,17.60
2017-06-28T21:33:58.474Z,17.70
2017-06-28T21:36:26.668Z,17.60
2017-06-28T21:38:54.952Z,17.70
2017-06-28T21:41:23.165Z,17.60
2017-06-28T21:43:51.439Z,17.70
2017-06-28T21:46:19.651Z,17.70
2017-06-28T21:48:47.901Z,17.60
2017-06-28T21:51:16.166Z,17.60
2017-06-28T21:53:44.368Z,17.60
2017-06-28T21:56:12.578Z,17.50
2017-06-28T21:58:40.841Z,17.50
2017-06-28T22:01:09.078Z,17.50
2017-06-28T22:03:37.304Z,17.40
2017-06-28T22:06:05.642Z,17.30
2017-06-28T22:08:34.633Z,17.30
2017-06-28T22:11:02.844Z,17.30
2017-06-28T22:13:31.086Z,17.30
2017-06-28T22:15:59.286Z,17.30
2017-06-28T22:18:39.441Z,17.30
2017-06-28T22:21:07.647Z,17.30
2017-06-28T22:23:35.860Z,17.30
2017-06-28T22:26:04.073Z,17.30
2017-06-28T22:28:32.276Z,17.30
2017-06-28T22:31:00.631Z,17.30
2017-06-28T22:33:29.723Z,17.40
2017-06-28T22:35:58.685Z,17.40
2017-06-28T22:38:26.901Z,17.30
2017-06-28T22:40:55.105Z,17.30
2017-06-28T22:43:23.312Z,17.30
2017-06-28T22:45:51.523Z,17.20
2017-06-28T22:48:20.494Z,17.20
2017-06-28T22:50:48.715Z,17.20
2017-06-28T22:53:16.958Z,17.20
2017-06-28T22:55:45.240Z,17.10
2017-06-28T22:58:14.225Z,17.00
2017-06-28T23:00:42.432Z,17.00
2017-06-28T23:03:10.643Z,17.00
2017-06-28T23:05:38.847Z,17.00
2017-06-28T23:08:07.054Z,17.00
2017-06-28T23:10:35.275Z,16.90
2017-06-28T23:13:03.472Z,16.90
2017-06-28T23:15:31.679Z,16.90
2017-06-28T23:17:59.960Z,16.90
2017-06-28T23:20:28.234Z,17.00
2017-06-28T23:22:56.516Z,17.00
2017-06-28T23:25:25.604Z,17.10
2017-06-28T23:27:54.570Z,17.10
2017-06-28T23:30:22.791Z,17.10
2017-06-28T23:32:51.057Z,17.00
2017-06-28T23:35:19.328Z,16.90
2017-06-28T23:37:48.307Z,16.80
2017-06-28T23:40:16.511Z,16.80
2017-06-28T23:42:44.774Z,16.80
2017-06-28T23:45:13.751Z,16.90
2017-06-28T23:47:41.944Z,16.80
2017-06-28T23:50:10.223Z,16.90
2017-06-28T23:52:38.457Z,16.90
2017-06-28T23:55:06.666Z,16.90
2017-06-28T23:57:34.901Z,16.90
